sensor_id;sensor_type;location;lat;lon;timestamp;P1;durP1;ratioP1;P2;durP2;ratioP2
11315;SDS011;5713;50.774;0.256;2022-09-28T00:01:49;3.17;;;1.67;;
11315;SDS011;5713;50.774;0.256;2022-09-28T00:04:15;3.78;;;1.90;;
11315;SDS011;5713;50.774;0.256;2022-09-28T00:06:41;2.45;;;1.80;;
11315;SDS011;5713;50.774;0.256;2022-09-28T00:09:08;4.18;;;1.90;;
11315;SDS011;5713;50.774;0.256;2022-09-28T00:11:34;3.80;;;1.70;;
11315;SDS011;5713;50.774;0.256;2022-09-28T00:14:02;3.10;;;1.60;;
11315;SDS011;5713;50.774;0.256;2022-09-28T00:16:30;2.77;;;1.80;;
11315;SDS011;5713;50.774;0.256;2022-09-28T00:18:57;3.27;;;1.70;;
11315;SDS011;5713;50.774;0.256;2022-09-28T00:21:24;3.23;;;1.80;;
11315;SDS011;5713;50.774;0.256;2022-09-28T00:23:51;2.38;;;1.55;;
11315;SDS011;5713;50.774;0.256;2022-09-28T00:26:36;3.72;;;1.90;;
11315;SDS011;5713;50.774;0.256;2022-09-28T00:29:03;2.75;;;1.50;;
11315;SDS011;5713;50.774;0.256;2022-09-28T00:31:30;3.17;;;1.52;;
11315;SDS011;5713;50.774;0.256;2022-09-28T00:33:57;3.33;;;1.58;;
11315;SDS011;5713;50.774;0.256;2022-09-28T00:36:24;2.60;;;1.70;;
11315;SDS011;5713;50.774;0.256;2022-09-28T00:38:54;3.70;;;1.70;;
11315;SDS011;5713;50.774;0.256;2022-09-28T00:41:24;2.90;;;1.77;;
11315;SDS011;5713;50.774;0.256;2022-09-28T00:43:51;2.80;;;1.80;;
11315;SDS011;5713;50.774;0.256;2022-09-28T00:46:30;3.03;;;1.67;;
11315;SDS011;5713;50.774;0.256;2022-09-28T00:48:59;2.83;;;1.55;;
11315;SDS011;5713;50.774;0.256;2022-09-28T00:51:27;2.60;;;1.75;;
11315;SDS011;5713;50.774;0.256;2022-09-28T00:53:54;3.92;;;1.90;;
11315;SDS011;5713;50.774;0.256;2022-09-28T00:56:22;3.85;;;2.10;;
11315;SDS011;5713;50.774;0.256;2022-09-28T00:58:50;2.85;;;1.73;;
11315;SDS011;5713;50.774;0.256;2022-09-28T01:01:16;3.15;;;1.85;;
11315;SDS011;5713;50.774;0.256;2022-09-28T01:03:43;3.78;;;1.92;;
11315;SDS011;5713;50.774;0.256;2022-09-28T01:06:14;3.63;;;1.80;;
11315;SDS011;5713;50.774;0.256;2022-09-28T01:08:41;3.05;;;1.73;;
11315;SDS011;5713;50.774;0.256;2022-09-28T01:11:09;3.03;;;1.90;;
11315;SDS011;5713;50.774;0.256;2022-09-28T01:13:35;3.03;;;2.17;;
11315;SDS011;5713;50.774;0.256;2022-09-28T01:18:40;3.15;;;1.83;;
11315;SDS011;5713;50.774;0.256;2022-09-28T01:21:09;3.15;;;1.95;;
11315;SDS011;5713;50.774;0.256;2022-09-28T01:28:36;2.30;;;1.77;;
11315;SDS011;5713;50.774;0.256;2022-09-28T01:31:04;3.50;;;1.90;;
11315;SDS011;5713;50.774;0.256;2022-09-28T01:33:34;3.33;;;1.98;;
11315;SDS011;5713;50.774;0.256;2022-09-28T01:36:04;3.42;;;1.98;;
11315;SDS011;5713;50.774;0.256;2022-09-28T01:38:36;3.72;;;2.10;;
11315;SDS011;5713;50.774;0.256;2022-09-28T01:41:05;3.78;;;1.95;;
11315;SDS011;5713;50.774;0.256;2022-09-28T01:43:33;7.00;;;2.40;;
11315;SDS011;5713;50.774;0.256;2022-09-28T01:46:01;13.40;;;2.83;;
11315;SDS011;5713;50.774;0.256;2022-09-28T01:48:37;9.85;;;2.47;;
11315;SDS011;5713;50.774;0.256;2022-09-28T01:51:06;11.35;;;2.67;;
11315;SDS011;5713;50.774;0.256;2022-09-28T01:53:40;17.58;;;3.35;;
11315;SDS011;5713;50.774;0.256;2022-09-28T01:56:10;15.55;;;3.60;;
11315;SDS011;5713;50.774;0.256;2022-09-28T01:58:39;17.73;;;3.45;;
11315;SDS011;5713;50.774;0.256;2022-09-28T02:01:10;10.25;;;3.10;;
11315;SDS011;5713;50.774;0.256;2022-09-28T02:03:40;13.63;;;3.63;;
11315;SDS011;5713;50.774;0.256;2022-09-28T02:06:30;14.25;;;3.22;;
11315;SDS011;5713;50.774;0.256;2022-09-28T02:08:54;13.70;;;3.53;;
11315;SDS011;5713;50.774;0.256;2022-09-28T02:11:21;12.57;;;3.03;;
11315;SDS011;5713;50.774;0.256;2022-09-28T02:13:49;14.10;;;3.63;;
11315;SDS011;5713;50.774;0.256;2022-09-28T02:18:43;11.48;;;3.30;;
11315;SDS011;5713;50.774;0.256;2022-09-28T02:21:12;13.50;;;3.28;;
11315;SDS011;5713;50.774;0.256;2022-09-28T02:23:40;11.20;;;3.17;;
11315;SDS011;5713;50.774;0.256;2022-09-28T02:26:11;8.00;;;3.07;;
11315;SDS011;5713;50.774;0.256;2022-09-28T02:28:38;9.77;;;3.00;;
11315;SDS011;5713;50.774;0.256;2022-09-28T02:31:04;9.55;;;3.13;;
11315;SDS011;5713;50.774;0.256;2022-09-28T02:33:34;8.02;;;3.08;;
11315;SDS011;5713;50.774;0.256;2022-09-28T02:36:01;9.57;;;2.90;;
11315;SDS011;5713;50.774;0.256;2022-09-28T02:38:29;8.50;;;2.87;;
11315;SDS011;5713;50.774;0.256;2022-09-28T02:41:02;8.20;;;2.70;;
11315;SDS011;5713;50.774;0.256;2022-09-28T02:49:26;6.53;;;2.50;;
11315;SDS011;5713;50.774;0.256;2022-09-28T02:54:29;5.38;;;2.50;;
11315;SDS011;5713;50.774;0.256;2022-09-28T03:07:59;5.40;;;2.50;;
11315;SDS011;5713;50.774;0.256;2022-09-28T03:10:32;5.93;;;2.50;;
11315;SDS011;5713;50.774;0.256;2022-09-28T03:13:00;4.60;;;2.40;;
11315;SDS011;5713;50.774;0.256;2022-09-28T03:15:28;6.10;;;2.60;;
11315;SDS011;5713;50.774;0.256;2022-09-28T03:17:54;4.07;;;2.33;;
11315;SDS011;5713;50.774;0.256;2022-09-28T03:20:21;5.10;;;2.50;;
11315;SDS011;5713;50.774;0.256;2022-09-28T03:22:49;5.47;;;2.40;;
11315;SDS011;5713;50.774;0.256;2022-09-28T03:25:15;5.57;;;2.30;;
11315;SDS011;5713;50.774;0.256;2022-09-28T03:27:41;4.57;;;2.40;;
11315;SDS011;5713;50.774;0.256;2022-09-28T03:30:07;4.50;;;2.33;;
11315;SDS011;5713;50.774;0.256;2022-09-28T03:32:34;4.32;;;2.25;;
11315;SDS011;5713;50.774;0.256;2022-09-28T03:35:00;4.87;;;2.27;;
11315;SDS011;5713;50.774;0.256;2022-09-28T03:37:27;5.00;;;2.37;;
11315;SDS011;5713;50.774;0.256;2022-09-28T03:39:53;4.22;;;2.10;;
11315;SDS011;5713;50.774;0.256;2022-09-28T03:42:19;3.88;;;2.17;;
11315;SDS011;5713;50.774;0.256;2022-09-28T03:44:45;5.35;;;2.33;;
11315;SDS011;5713;50.774;0.256;2022-09-28T03:47:11;6.13;;;2.30;;
11315;SDS011;5713;50.774;0.256;2022-09-28T03:49:39;4.65;;;2.30;;
11315;SDS011;5713;50.774;0.256;2022-09-28T03:52:06;4.13;;;2.30;;
11315;SDS011;5713;50.774;0.256;2022-09-28T03:54:32;5.25;;;2.40;;
11315;SDS011;5713;50.774;0.256;2022-09-28T03:56:58;5.43;;;2.40;;
11315;SDS011;5713;50.774;0.256;2022-09-28T03:59:24;6.18;;;2.58;;
11315;SDS011;5713;50.774;0.256;2022-09-28T04:01:50;4.15;;;2.28;;
11315;SDS011;5713;50.774;0.256;2022-09-28T04:04:17;5.03;;;2.38;;
11315;SDS011;5713;50.774;0.256;2022-09-28T04:06:43;4.68;;;2.38;;
11315;SDS011;5713;50.774;0.256;2022-09-28T04:09:09;4.25;;;2.25;;
11315;SDS011;5713;50.774;0.256;2022-09-28T04:11:35;4.07;;;2.35;;
11315;SDS011;5713;50.774;0.256;2022-09-28T04:14:01;5.57;;;2.40;;
11315;SDS011;5713;50.774;0.256;2022-09-28T04:16:28;5.10;;;2.38;;
11315;SDS011;5713;50.774;0.256;2022-09-28T04:18:54;4.25;;;2.30;;
11315;SDS011;5713;50.774;0.256;2022-09-28T04:21:20;5.20;;;2.17;;
11315;SDS011;5713;50.774;0.256;2022-09-28T04:23:46;4.22;;;2.38;;
11315;SDS011;5713;50.774;0.256;2022-09-28T04:26:21;4.90;;;2.50;;
11315;SDS011;5713;50.774;0.256;2022-09-28T04:28:47;5.30;;;2.38;;
11315;SDS011;5713;50.774;0.256;2022-09-28T04:31:36;5.32;;;2.45;;
11315;SDS011;5713;50.774;0.256;2022-09-28T04:34:03;4.22;;;2.35;;
11315;SDS011;5713;50.774;0.256;2022-09-28T04:36:29;4.18;;;2.20;;
11315;SDS011;5713;50.774;0.256;2022-09-28T04:38:55;4.23;;;2.40;;
11315;SDS011;5713;50.774;0.256;2022-09-28T04:41:21;4.25;;;2.33;;
11315;SDS011;5713;50.774;0.256;2022-09-28T04:43:48;5.90;;;2.40;;
11315;SDS011;5713;50.774;0.256;2022-09-28T04:46:15;4.00;;;2.10;;
11315;SDS011;5713;50.774;0.256;2022-09-28T04:48:41;4.38;;;2.30;;
11315;SDS011;5713;50.774;0.256;2022-09-28T04:51:07;4.05;;;2.33;;
11315;SDS011;5713;50.774;0.256;2022-09-28T04:53:33;3.90;;;2.10;;
11315;SDS011;5713;50.774;0.256;2022-09-28T04:56:00;3.60;;;2.20;;
11315;SDS011;5713;50.774;0.256;2022-09-28T04:58:27;4.75;;;2.38;;
11315;SDS011;5713;50.774;0.256;2022-09-28T05:00:58;4.90;;;2.25;;
11315;SDS011;5713;50.774;0.256;2022-09-28T05:03:25;4.10;;;2.43;;
11315;SDS011;5713;50.774;0.256;2022-09-28T05:05:51;3.42;;;2.20;;
11315;SDS011;5713;50.774;0.256;2022-09-28T05:08:17;4.90;;;2.45;;
11315;SDS011;5713;50.774;0.256;2022-09-28T05:10:43;3.88;;;2.08;;
11315;SDS011;5713;50.774;0.256;2022-09-28T05:13:10;5.35;;;2.40;;
11315;SDS011;5713;50.774;0.256;2022-09-28T05:15:37;4.53;;;2.42;;
11315;SDS011;5713;50.774;0.256;2022-09-28T05:18:04;4.38;;;2.10;;
11315;SDS011;5713;50.774;0.256;2022-09-28T05:20:30;4.88;;;2.20;;
11315;SDS011;5713;50.774;0.256;2022-09-28T05:22:56;3.97;;;2.38;;
11315;SDS011;5713;50.774;0.256;2022-09-28T05:25:22;4.93;;;2.42;;
11315;SDS011;5713;50.774;0.256;2022-09-28T05:27:55;3.35;;;2.28;;
11315;SDS011;5713;50.774;0.256;2022-09-28T05:30:21;3.30;;;2.10;;
11315;SDS011;5713;50.774;0.256;2022-09-28T05:32:47;4.28;;;2.25;;
11315;SDS011;5713;50.774;0.256;2022-09-28T05:35:17;4.75;;;2.40;;
11315;SDS011;5713;50.774;0.256;2022-09-28T05:37:44;3.45;;;2.17;;
11315;SDS011;5713;50.774;0.256;2022-09-28T05:40:10;3.90;;;2.30;;
11315;SDS011;5713;50.774;0.256;2022-09-28T05:42:36;3.45;;;2.10;;
11315;SDS011;5713;50.774;0.256;2022-09-28T05:45:02;5.57;;;2.40;;
11315;SDS011;5713;50.774;0.256;2022-09-28T05:47:30;5.10;;;2.28;;
11315;SDS011;5713;50.774;0.256;2022-09-28T05:49:56;4.50;;;2.25;;
11315;SDS011;5713;50.774;0.256;2022-09-28T05:52:22;3.67;;;2.23;;
11315;SDS011;5713;50.774;0.256;2022-09-28T05:54:48;5.60;;;2.72;;
11315;SDS011;5713;50.774;0.256;2022-09-28T05:57:15;3.50;;;2.10;;
11315;SDS011;5713;50.774;0.256;2022-09-28T05:59:41;3.17;;;2.08;;
11315;SDS011;5713;50.774;0.256;2022-09-28T06:02:08;5.07;;;2.45;;
11315;SDS011;5713;50.774;0.256;2022-09-28T06:04:34;4.18;;;2.40;;
11315;SDS011;5713;50.774;0.256;2022-09-28T06:07:01;4.47;;;2.13;;
11315;SDS011;5713;50.774;0.256;2022-09-28T06:09:27;4.18;;;2.33;;
11315;SDS011;5713;50.774;0.256;2022-09-28T06:11:53;4.47;;;2.40;;
11315;SDS011;5713;50.774;0.256;2022-09-28T06:14:19;4.25;;;2.28;;
11315;SDS011;5713;50.774;0.256;2022-09-28T06:16:45;4.03;;;2.20;;
11315;SDS011;5713;50.774;0.256;2022-09-28T06:19:11;5.22;;;2.45;;
11315;SDS011;5713;50.774;0.256;2022-09-28T06:21:37;3.83;;;2.50;;
11315;SDS011;5713;50.774;0.256;2022-09-28T06:24:03;4.32;;;2.20;;
11315;SDS011;5713;50.774;0.256;2022-09-28T06:26:30;4.07;;;2.20;;
11315;SDS011;5713;50.774;0.256;2022-09-28T06:28:56;4.70;;;2.25;;
11315;SDS011;5713;50.774;0.256;2022-09-28T06:31:27;3.43;;;2.00;;
11315;SDS011;5713;50.774;0.256;2022-09-28T06:33:54;3.92;;;2.30;;
11315;SDS011;5713;50.774;0.256;2022-09-28T06:36:20;3.45;;;2.20;;
11315;SDS011;5713;50.774;0.256;2022-09-28T06:38:46;4.03;;;2.10;;
11315;SDS011;5713;50.774;0.256;2022-09-28T06:41:12;5.32;;;2.42;;
11315;SDS011;5713;50.774;0.256;2022-09-28T06:43:38;4.00;;;2.10;;
11315;SDS011;5713;50.774;0.256;2022-09-28T06:46:05;4.77;;;2.10;;
11315;SDS011;5713;50.774;0.256;2022-09-28T06:48:32;3.17;;;2.00;;
11315;SDS011;5713;50.774;0.256;2022-09-28T06:50:58;4.50;;;2.35;;
11315;SDS011;5713;50.774;0.256;2022-09-28T06:53:25;3.25;;;2.10;;
11315;SDS011;5713;50.774;0.256;2022-09-28T06:55:54;3.60;;;2.20;;
11315;SDS011;5713;50.774;0.256;2022-09-28T06:58:21;4.40;;;2.30;;
11315;SDS011;5713;50.774;0.256;2022-09-28T07:00:50;4.15;;;2.30;;
11315;SDS011;5713;50.774;0.256;2022-09-28T07:03:20;3.38;;;2.25;;
11315;SDS011;5713;50.774;0.256;2022-09-28T07:05:50;3.53;;;2.10;;
11315;SDS011;5713;50.774;0.256;2022-09-28T07:08:18;3.75;;;2.10;;
11315;SDS011;5713;50.774;0.256;2022-09-28T07:10:45;3.97;;;2.35;;
11315;SDS011;5713;50.774;0.256;2022-09-28T07:13:12;4.40;;;2.10;;
11315;SDS011;5713;50.774;0.256;2022-09-28T07:15:39;4.30;;;2.10;;
11315;SDS011;5713;50.774;0.256;2022-09-28T07:18:05;3.92;;;2.15;;
11315;SDS011;5713;50.774;0.256;2022-09-28T07:20:33;3.45;;;2.05;;
11315;SDS011;5713;50.774;0.256;2022-09-28T07:23:00;6.38;;;2.38;;
11315;SDS011;5713;50.774;0.256;2022-09-28T07:25:27;3.28;;;1.90;;
11315;SDS011;5713;50.774;0.256;2022-09-28T07:27:59;2.97;;;2.05;;
11315;SDS011;5713;50.774;0.256;2022-09-28T07:30:26;3.80;;;2.13;;
11315;SDS011;5713;50.774;0.256;2022-09-28T07:32:53;3.75;;;2.08;;
11315;SDS011;5713;50.774;0.256;2022-09-28T07:35:20;3.88;;;2.00;;
11315;SDS011;5713;50.774;0.256;2022-09-28T07:37:46;4.20;;;2.10;;
11315;SDS011;5713;50.774;0.256;2022-09-28T07:40:12;3.50;;;2.17;;
11315;SDS011;5713;50.774;0.256;2022-09-28T07:43:04;3.20;;;2.03;;
11315;SDS011;5713;50.774;0.256;2022-09-28T07:45:30;3.33;;;2.05;;
11315;SDS011;5713;50.774;0.256;2022-09-28T07:48:00;3.88;;;2.03;;
11315;SDS011;5713;50.774;0.256;2022-09-28T07:50:27;3.55;;;2.17;;
11315;SDS011;5713;50.774;0.256;2022-09-28T07:52:54;4.20;;;2.00;;
11315;SDS011;5713;50.774;0.256;2022-09-28T07:55:21;3.55;;;1.95;;
11315;SDS011;5713;50.774;0.256;2022-09-28T07:57:52;4.57;;;1.90;;
11315;SDS011;5713;50.774;0.256;2022-09-28T08:00:19;4.00;;;2.10;;
11315;SDS011;5713;50.774;0.256;2022-09-28T08:02:45;3.80;;;1.90;;
11315;SDS011;5713;50.774;0.256;2022-09-28T08:05:12;3.40;;;2.10;;
11315;SDS011;5713;50.774;0.256;2022-09-28T08:07:38;2.95;;;1.63;;
11315;SDS011;5713;50.774;0.256;2022-09-28T08:10:04;3.00;;;1.92;;
11315;SDS011;5713;50.774;0.256;2022-09-28T08:12:31;2.67;;;1.75;;
11315;SDS011;5713;50.774;0.256;2022-09-28T08:14:57;3.05;;;2.00;;
11315;SDS011;5713;50.774;0.256;2022-09-28T08:17:24;4.40;;;2.15;;
11315;SDS011;5713;50.774;0.256;2022-09-28T08:19:50;2.50;;;1.83;;
11315;SDS011;5713;50.774;0.256;2022-09-28T08:22:34;3.70;;;2.00;;
11315;SDS011;5713;50.774;0.256;2022-09-28T08:25:01;3.00;;;1.90;;
11315;SDS011;5713;50.774;0.256;2022-09-28T08:27:27;2.50;;;1.80;;
11315;SDS011;5713;50.774;0.256;2022-09-28T08:29:53;3.45;;;1.98;;
11315;SDS011;5713;50.774;0.256;2022-09-28T08:32:19;3.90;;;1.90;;
11315;SDS011;5713;50.774;0.256;2022-09-28T08:34:45;3.13;;;1.83;;
11315;SDS011;5713;50.774;0.256;2022-09-28T08:37:11;3.75;;;1.90;;
11315;SDS011;5713;50.774;0.256;2022-09-28T08:39:37;3.13;;;2.00;;
11315;SDS011;5713;50.774;0.256;2022-09-28T08:44:38;3.28;;;2.08;;
11315;SDS011;5713;50.774;0.256;2022-09-28T08:47:06;3.17;;;1.80;;
11315;SDS011;5713;50.774;0.256;2022-09-28T08:49:37;3.33;;;2.10;;
11315;SDS011;5713;50.774;0.256;2022-09-28T08:52:04;3.03;;;2.00;;
11315;SDS011;5713;50.774;0.256;2022-09-28T08:59:25;4.75;;;2.17;;
11315;SDS011;5713;50.774;0.256;2022-09-28T09:01:57;4.03;;;2.35;;
11315;SDS011;5713;50.774;0.256;2022-09-28T09:04:24;4.88;;;2.30;;
11315;SDS011;5713;50.774;0.256;2022-09-28T09:17:36;9.68;;;2.70;;
11315;SDS011;5713;50.774;0.256;2022-09-28T09:20:19;8.38;;;2.50;;
11315;SDS011;5713;50.774;0.256;2022-09-28T09:30:42;6.65;;;2.17;;
11315;SDS011;5713;50.774;0.256;2022-09-28T09:33:34;6.90;;;2.17;;
11315;SDS011;5713;50.774;0.256;2022-09-28T09:38:28;4.18;;;2.08;;
11315;SDS011;5713;50.774;0.256;2022-09-28T09:46:33;7.25;;;2.20;;
11315;SDS011;5713;50.774;0.256;2022-09-28T09:49:03;3.40;;;1.92;;
11315;SDS011;5713;50.774;0.256;2022-09-28T09:51:33;3.30;;;1.88;;
11315;SDS011;5713;50.774;0.256;2022-09-28T09:54:04;9.68;;;2.45;;
11315;SDS011;5713;50.774;0.256;2022-09-28T09:56:35;10.45;;;2.60;;
11315;SDS011;5713;50.774;0.256;2022-09-28T09:59:06;14.35;;;2.83;;
11315;SDS011;5713;50.774;0.256;2022-09-28T10:01:36;11.85;;;2.72;;
11315;SDS011;5713;50.774;0.256;2022-09-28T10:04:10;5.95;;;2.53;;
11315;SDS011;5713;50.774;0.256;2022-09-28T10:06:39;6.72;;;2.42;;
11315;SDS011;5713;50.774;0.256;2022-09-28T10:09:13;7.68;;;1.77;;
11315;SDS011;5713;50.774;0.256;2022-09-28T10:11:42;3.97;;;1.80;;
11315;SDS011;5713;50.774;0.256;2022-09-28T10:14:12;6.05;;;2.20;;
11315;SDS011;5713;50.774;0.256;2022-09-28T10:16:41;5.43;;;2.10;;
11315;SDS011;5713;50.774;0.256;2022-09-28T10:19:09;6.28;;;1.98;;
11315;SDS011;5713;50.774;0.256;2022-09-28T10:21:37;4.38;;;2.10;;
11315;SDS011;5713;50.774;0.256;2022-09-28T10:24:07;4.30;;;1.65;;
11315;SDS011;5713;50.774;0.256;2022-09-28T10:26:38;5.57;;;2.10;;
11315;SDS011;5713;50.774;0.256;2022-09-28T10:29:12;4.90;;;1.90;;
11315;SDS011;5713;50.774;0.256;2022-09-28T10:31:43;4.43;;;1.60;;
11315;SDS011;5713;50.774;0.256;2022-09-28T10:34:11;4.50;;;1.90;;
11315;SDS011;5713;50.774;0.256;2022-09-28T10:41:58;2.53;;;1.50;;
11315;SDS011;5713;50.774;0.256;2022-09-28T10:44:27;4.32;;;1.48;;
11315;SDS011;5713;50.774;0.256;2022-09-28T10:46:56;3.03;;;1.65;;
11315;SDS011;5713;50.774;0.256;2022-09-28T10:49:24;3.20;;;1.63;;
11315;SDS011;5713;50.774;0.256;2022-09-28T10:51:52;2.78;;;1.33;;
11315;SDS011;5713;50.774;0.256;2022-09-28T10:54:26;2.85;;;1.50;;
11315;SDS011;5713;50.774;0.256;2022-09-28T10:56:54;2.47;;;1.25;;
11315;SDS011;5713;50.774;0.256;2022-09-28T11:01:56;4.05;;;1.55;;
11315;SDS011;5713;50.774;0.256;2022-09-28T11:04:25;2.08;;;1.38;;
11315;SDS011;5713;50.774;0.256;2022-09-28T11:06:52;3.03;;;1.50;;
11315;SDS011;5713;50.774;0.256;2022-09-28T11:09:32;2.72;;;1.33;;
11315;SDS011;5713;50.774;0.256;2022-09-28T11:11:59;2.50;;;1.38;;
11315;SDS011;5713;50.774;0.256;2022-09-28T11:14:32;2.83;;;1.38;;
11315;SDS011;5713;50.774;0.256;2022-09-28T11:17:24;2.70;;;1.30;;
11315;SDS011;5713;50.774;0.256;2022-09-28T11:19:51;3.05;;;1.60;;
11315;SDS011;5713;50.774;0.256;2022-09-28T11:22:27;3.33;;;1.63;;
11315;SDS011;5713;50.774;0.256;2022-09-28T11:25:18;4.50;;;1.60;;
11315;SDS011;5713;50.774;0.256;2022-09-28T11:30:22;2.20;;;1.30;;
11315;SDS011;5713;50.774;0.256;2022-09-28T11:32:49;2.77;;;1.60;;
11315;SDS011;5713;50.774;0.256;2022-09-28T11:35:16;3.20;;;1.45;;
11315;SDS011;5713;50.774;0.256;2022-09-28T11:38:05;3.40;;;1.57;;
11315;SDS011;5713;50.774;0.256;2022-09-28T11:46:02;3.05;;;1.58;;
11315;SDS011;5713;50.774;0.256;2022-09-28T11:48:38;3.13;;;1.40;;
11315;SDS011;5713;50.774;0.256;2022-09-28T11:53:52;2.70;;;1.30;;
11315;SDS011;5713;50.774;0.256;2022-09-28T11:56:36;1.73;;;1.17;;
11315;SDS011;5713;50.774;0.256;2022-09-28T12:06:48;2.03;;;1.17;;
11315;SDS011;5713;50.774;0.256;2022-09-28T12:09:18;2.13;;;1.17;;
11315;SDS011;5713;50.774;0.256;2022-09-28T12:11:47;2.03;;;1.20;;
11315;SDS011;5713;50.774;0.256;2022-09-28T12:14:25;1.83;;;1.05;;
11315;SDS011;5713;50.774;0.256;2022-09-28T12:16:54;2.53;;;1.13;;
11315;SDS011;5713;50.774;0.256;2022-09-28T12:22:28;1.40;;;1.05;;
11315;SDS011;5713;50.774;0.256;2022-09-28T12:24:56;1.50;;;1.05;;
11315;SDS011;5713;50.774;0.256;2022-09-28T12:27:38;1.20;;;1.00;;
11315;SDS011;5713;50.774;0.256;2022-09-28T12:30:15;1.15;;;1.00;;
11315;SDS011;5713;50.774;0.256;2022-09-28T12:32:45;1.70;;;1.10;;
11315;SDS011;5713;50.774;0.256;2022-09-28T12:43:11;1.48;;;1.17;;
11315;SDS011;5713;50.774;0.256;2022-09-28T12:48:32;1.60;;;1.20;;
11315;SDS011;5713;50.774;0.256;2022-09-28T12:51:13;1.60;;;1.02;;
11315;SDS011;5713;50.774;0.256;2022-09-28T12:58:55;1.20;;;0.93;;
11315;SDS011;5713;50.774;0.256;2022-09-28T13:11:43;1.38;;;1.00;;
11315;SDS011;5713;50.774;0.256;2022-09-28T13:14:19;1.33;;;1.20;;
11315;SDS011;5713;50.774;0.256;2022-09-28T13:16:59;1.17;;;0.93;;
11315;SDS011;5713;50.774;0.256;2022-09-28T13:19:32;1.60;;;1.00;;
11315;SDS011;5713;50.774;0.256;2022-09-28T13:24:36;2.20;;;1.10;;
11315;SDS011;5713;50.774;0.256;2022-09-28T13:27:08;0.80;;;0.80;;
11315;SDS011;5713;50.774;0.256;2022-09-28T13:29:36;1.38;;;1.10;;
11315;SDS011;5713;50.774;0.256;2022-09-28T13:32:03;1.15;;;0.80;;
11315;SDS011;5713;50.774;0.256;2022-09-28T13:34:31;1.98;;;0.90;;
11315;SDS011;5713;50.774;0.256;2022-09-28T13:42:22;1.02;;;0.88;;
11315;SDS011;5713;50.774;0.256;2022-09-28T13:45:02;1.70;;;0.93;;
11315;SDS011;5713;50.774;0.256;2022-09-28T13:55:46;5.70;;;1.98;;
11315;SDS011;5713;50.774;0.256;2022-09-28T14:01:01;5.32;;;1.90;;
11315;SDS011;5713;50.774;0.256;2022-09-28T14:06:03;2.00;;;1.30;;
11315;SDS011;5713;50.774;0.256;2022-09-28T14:08:31;4.80;;;1.60;;
11315;SDS011;5713;50.774;0.256;2022-09-28T14:16:31;5.45;;;1.83;;
11315;SDS011;5713;50.774;0.256;2022-09-28T14:29:26;2.63;;;1.30;;
11315;SDS011;5713;50.774;0.256;2022-09-28T14:32:35;3.85;;;1.77;;
11315;SDS011;5713;50.774;0.256;2022-09-28T14:34:45;5.88;;;2.00;;
11315;SDS011;5713;50.774;0.256;2022-09-28T14:37:32;5.57;;;1.80;;
11315;SDS011;5713;50.774;0.256;2022-09-28T14:40:19;6.93;;;1.92;;
11315;SDS011;5713;50.774;0.256;2022-09-28T14:45:48;6.40;;;1.77;;
11315;SDS011;5713;50.774;0.256;2022-09-28T14:48:19;5.63;;;1.77;;
11315;SDS011;5713;50.774;0.256;2022-09-28T14:50:46;2.83;;;1.40;;
11315;SDS011;5713;50.774;0.256;2022-09-28T14:53:21;4.18;;;1.33;;
11315;SDS011;5713;50.774;0.256;2022-09-28T14:55:49;2.30;;;1.43;;
11315;SDS011;5713;50.774;0.256;2022-09-28T14:58:20;2.38;;;1.38;;
11315;SDS011;5713;50.774;0.256;2022-09-28T15:00:47;4.75;;;1.45;;
11315;SDS011;5713;50.774;0.256;2022-09-28T15:03:14;3.33;;;1.30;;
11315;SDS011;5713;50.774;0.256;2022-09-28T15:05:42;3.47;;;1.65;;
11315;SDS011;5713;50.774;0.256;2022-09-28T15:08:10;4.43;;;1.35;;
11315;SDS011;5713;50.774;0.256;2022-09-28T15:10:47;4.35;;;1.30;;
11315;SDS011;5713;50.774;0.256;2022-09-28T15:13:21;4.53;;;1.38;;
11315;SDS011;5713;50.774;0.256;2022-09-28T15:15:50;6.47;;;1.50;;
11315;SDS011;5713;50.774;0.256;2022-09-28T15:18:29;2.75;;;1.30;;
11315;SDS011;5713;50.774;0.256;2022-09-28T15:20:59;4.85;;;1.40;;
11315;SDS011;5713;50.774;0.256;2022-09-28T15:25:54;3.60;;;1.38;;
11315;SDS011;5713;50.774;0.256;2022-09-28T15:28:22;2.83;;;1.33;;
11315;SDS011;5713;50.774;0.256;2022-09-28T15:30:49;2.50;;;1.20;;
11315;SDS011;5713;50.774;0.256;2022-09-28T15:33:31;2.40;;;1.20;;
11315;SDS011;5713;50.774;0.256;2022-09-28T15:38:45;1.42;;;1.33;;
11315;SDS011;5713;50.774;0.256;2022-09-28T15:41:14;1.70;;;1.20;;
11315;SDS011;5713;50.774;0.256;2022-09-28T15:43:40;2.13;;;1.15;;
11315;SDS011;5713;50.774;0.256;2022-09-28T15:46:16;2.28;;;1.20;;
11315;SDS011;5713;50.774;0.256;2022-09-28T15:51:17;2.70;;;1.25;;
11315;SDS011;5713;50.774;0.256;2022-09-28T15:56:15;1.85;;;1.20;;
11315;SDS011;5713;50.774;0.256;2022-09-28T15:58:41;1.67;;;1.20;;
11315;SDS011;5713;50.774;0.256;2022-09-28T16:03:54;1.80;;;1.10;;
11315;SDS011;5713;50.774;0.256;2022-09-28T16:06:20;1.50;;;0.93;;
11315;SDS011;5713;50.774;0.256;2022-09-28T16:08:47;1.52;;;1.10;;
11315;SDS011;5713;50.774;0.256;2022-09-28T16:11:26;1.75;;;1.00;;
11315;SDS011;5713;50.774;0.256;2022-09-28T16:13:59;1.50;;;1.25;;
11315;SDS011;5713;50.774;0.256;2022-09-28T16:16:34;1.40;;;1.20;;
11315;SDS011;5713;50.774;0.256;2022-09-28T16:19:02;1.30;;;1.00;;
11315;SDS011;5713;50.774;0.256;2022-09-28T16:21:36;1.30;;;1.10;;
11315;SDS011;5713;50.774;0.256;2022-09-28T16:24:04;1.30;;;0.90;;
11315;SDS011;5713;50.774;0.256;2022-09-28T16:26:33;1.60;;;1.15;;
11315;SDS011;5713;50.774;0.256;2022-09-28T16:29:50;1.33;;;1.23;;
11315;SDS011;5713;50.774;0.256;2022-09-28T16:31:49;1.50;;;1.23;;
11315;SDS011;5713;50.774;0.256;2022-09-28T16:34:24;1.77;;;1.45;;
11315;SDS011;5713;50.774;0.256;2022-09-28T16:36:51;1.35;;;1.10;;
11315;SDS011;5713;50.774;0.256;2022-09-28T16:39:17;1.55;;;1.30;;
11315;SDS011;5713;50.774;0.256;2022-09-28T16:41:46;1.55;;;1.45;;
11315;SDS011;5713;50.774;0.256;2022-09-28T16:44:15;1.80;;;1.40;;
11315;SDS011;5713;50.774;0.256;2022-09-28T16:46:43;1.58;;;1.48;;
11315;SDS011;5713;50.774;0.256;2022-09-28T16:49:11;1.60;;;1.50;;
11315;SDS011;5713;50.774;0.256;2022-09-28T16:51:42;2.00;;;1.90;;
11315;SDS011;5713;50.774;0.256;2022-09-28T16:54:14;2.30;;;2.10;;
11315;SDS011;5713;50.774;0.256;2022-09-28T16:56:59;2.30;;;2.10;;
11315;SDS011;5713;50.774;0.256;2022-09-28T16:59:25;2.03;;;1.85;;
11315;SDS011;5713;50.774;0.256;2022-09-28T17:01:52;2.22;;;2.00;;
11315;SDS011;5713;50.774;0.256;2022-09-28T17:04:20;2.00;;;1.90;;
11315;SDS011;5713;50.774;0.256;2022-09-28T17:06:48;2.10;;;2.00;;
11315;SDS011;5713;50.774;0.256;2022-09-28T17:09:17;2.20;;;2.00;;
11315;SDS011;5713;50.774;0.256;2022-09-28T17:11:43;2.20;;;2.00;;
11315;SDS011;5713;50.774;0.256;2022-09-28T17:14:09;2.50;;;2.30;;
11315;SDS011;5713;50.774;0.256;2022-09-28T17:16:36;2.40;;;2.20;;
11315;SDS011;5713;50.774;0.256;2022-09-28T17:19:17;2.38;;;2.17;;
11315;SDS011;5713;50.774;0.256;2022-09-28T17:21:44;2.03;;;1.92;;
11315;SDS011;5713;50.774;0.256;2022-09-28T17:24:10;2.33;;;2.15;;
11315;SDS011;5713;50.774;0.256;2022-09-28T17:26:36;2.42;;;2.22;;
11315;SDS011;5713;50.774;0.256;2022-09-28T17:29:03;2.30;;;2.10;;
11315;SDS011;5713;50.774;0.256;2022-09-28T17:31:32;2.03;;;1.90;;
11315;SDS011;5713;50.774;0.256;2022-09-28T17:33:59;2.33;;;2.13;;
11315;SDS011;5713;50.774;0.256;2022-09-28T17:36:25;2.30;;;1.98;;
11315;SDS011;5713;50.774;0.256;2022-09-28T17:38:51;2.00;;;1.90;;
11315;SDS011;5713;50.774;0.256;2022-09-28T17:41:17;1.98;;;1.88;;
11315;SDS011;5713;50.774;0.256;2022-09-28T17:43:44;2.25;;;2.05;;
11315;SDS011;5713;50.774;0.256;2022-09-28T17:48:45;1.83;;;1.73;;
11315;SDS011;5713;50.774;0.256;2022-09-28T17:51:12;1.80;;;1.70;;
11315;SDS011;5713;50.774;0.256;2022-09-28T17:53:38;1.75;;;1.60;;
11315;SDS011;5713;50.774;0.256;2022-09-28T17:56:05;1.63;;;1.52;;
11315;SDS011;5713;50.774;0.256;2022-09-28T17:58:31;1.80;;;1.70;;
11315;SDS011;5713;50.774;0.256;2022-09-28T18:00:57;1.80;;;1.70;;
11315;SDS011;5713;50.774;0.256;2022-09-28T18:03:23;1.60;;;1.50;;
11315;SDS011;5713;50.774;0.256;2022-09-28T18:05:57;1.88;;;1.77;;
11315;SDS011;5713;50.774;0.256;2022-09-28T18:08:23;2.00;;;1.73;;